sensor_id;sensor_type;location;lat;lon;timestamp;P1;durP1;ratioP1;P2;durP2;ratioP2
46377;SDS011;32083;47.360;9.650;2023-03-30T04:01:48;4.65;;;1.90;;
46377;SDS011;32083;47.360;9.650;2023-03-30T04:04:14;4.97;;;1.92;;
46377;SDS011;32083;47.360;9.650;2023-03-30T04:06:40;5.13;;;1.65;;
46377;SDS011;32083;47.360;9.650;2023-03-30T04:09:07;5.40;;;1.67;;
46377;SDS011;32083;47.360;9.650;2023-03-30T04:11:33;6.15;;;1.63;;
46377;SDS011;32083;47.360;9.650;2023-03-30T04:13:59;7.05;;;1.90;;
46377;SDS011;32083;47.360;9.650;2023-03-30T04:16:25;6.47;;;2.28;;
46377;SDS011;32083;47.360;9.650;2023-03-30T04:18:52;16.58;;;2.53;;
46377;SDS011;32083;47.360;9.650;2023-03-30T04:21:18;5.55;;;2.05;;
46377;SDS011;32083;47.360;9.650;2023-03-30T04:23:45;7.70;;;2.72;;
46377;SDS011;32083;47.360;9.650;2023-03-30T04:26:13;5.57;;;2.58;;
46377;SDS011;32083;47.360;9.650;2023-03-30T04:28:40;7.88;;;1.98;;
46377;SDS011;32083;47.360;9.650;2023-03-30T04:31:06;7.57;;;1.85;;
46377;SDS011;32083;47.360;9.650;2023-03-30T04:33:35;6.53;;;2.10;;
46377;SDS011;32083;47.360;9.650;2023-03-30T04:36:03;9.57;;;3.40;;
46377;SDS011;32083;47.360;9.650;2023-03-30T04:38:29;7.72;;;2.38;;
46377;SDS011;32083;47.360;9.650;2023-03-30T04:40:55;5.70;;;1.98;;
46377;SDS011;32083;47.360;9.650;2023-03-30T04:43:24;7.20;;;1.75;;
46377;SDS011;32083;47.360;9.650;2023-03-30T04:45:52;5.32;;;2.75;;
46377;SDS011;32083;47.360;9.650;2023-03-30T04:48:19;9.00;;;2.33;;
46377;SDS011;32083;47.360;9.650;2023-03-30T04:50:47;8.15;;;2.50;;
46377;SDS011;32083;47.360;9.650;2023-03-30T04:53:15;5.40;;;1.95;;
46377;SDS011;32083;47.360;9.650;2023-03-30T04:55:45;8.77;;;2.60;;
46377;SDS011;32083;47.360;9.650;2023-03-30T04:58:13;4.72;;;1.63;;
46377;SDS011;32083;47.360;9.650;2023-03-30T05:00:39;5.35;;;1.50;;
46377;SDS011;32083;47.360;9.650;2023-03-30T05:03:05;11.07;;;2.30;;
46377;SDS011;32083;47.360;9.650;2023-03-30T05:05:32;4.82;;;1.52;;
46377;SDS011;32083;47.360;9.650;2023-03-30T05:07:58;5.82;;;1.70;;
46377;SDS011;32083;47.360;9.650;2023-03-30T05:10:24;5.47;;;2.00;;
46377;SDS011;32083;47.360;9.650;2023-03-30T05:12:54;10.48;;;4.55;;
46377;SDS011;32083;47.360;9.650;2023-03-30T05:15:20;9.73;;;2.97;;
46377;SDS011;32083;47.360;9.650;2023-03-30T05:17:47;5.30;;;2.80;;
46377;SDS011;32083;47.360;9.650;2023-03-30T05:20:13;6.20;;;1.70;;
46377;SDS011;32083;47.360;9.650;2023-03-30T05:22:39;6.15;;;2.15;;
46377;SDS011;32083;47.360;9.650;2023-03-30T05:25:05;10.20;;;3.88;;
46377;SDS011;32083;47.360;9.650;2023-03-30T05:27:32;5.72;;;2.13;;
46377;SDS011;32083;47.360;9.650;2023-03-30T05:29:58;6.05;;;2.10;;
46377;SDS011;32083;47.360;9.650;2023-03-30T05:32:24;5.10;;;1.80;;
46377;SDS011;32083;47.360;9.650;2023-03-30T05:34:50;5.97;;;2.30;;
46377;SDS011;32083;47.360;9.650;2023-03-30T05:37:16;5.97;;;2.33;;
46377;SDS011;32083;47.360;9.650;2023-03-30T05:39:42;6.03;;;3.05;;
46377;SDS011;32083;47.360;9.650;2023-03-30T05:42:09;5.95;;;2.17;;
46377;SDS011;32083;47.360;9.650;2023-03-30T05:44:35;6.55;;;3.17;;
46377;SDS011;32083;47.360;9.650;2023-03-30T05:47:01;7.85;;;2.53;;
46377;SDS011;32083;47.360;9.650;2023-03-30T05:49:27;12.43;;;3.30;;
46377;SDS011;32083;47.360;9.650;2023-03-30T05:51:53;8.73;;;2.70;;
46377;SDS011;32083;47.360;9.650;2023-03-30T05:54:19;6.47;;;2.65;;
46377;SDS011;32083;47.360;9.650;2023-03-30T05:56:45;9.52;;;3.20;;
46377;SDS011;32083;47.360;9.650;2023-03-30T05:59:11;6.60;;;2.78;;
46377;SDS011;32083;47.360;9.650;2023-03-30T06:01:38;7.03;;;2.65;;
46377;SDS011;32083;47.360;9.650;2023-03-30T06:04:04;7.05;;;1.90;;
46377;SDS011;32083;47.360;9.650;2023-03-30T06:06:32;9.02;;;2.15;;
46377;SDS011;32083;47.360;9.650;2023-03-30T06:08:58;6.55;;;1.67;;
46377;SDS011;32083;47.360;9.650;2023-03-30T06:11:24;8.10;;;2.65;;
46377;SDS011;32083;47.360;9.650;2023-03-30T06:13:50;7.22;;;1.88;;
46377;SDS011;32083;47.360;9.650;2023-03-30T06:16:15;5.38;;;2.72;;
46377;SDS011;32083;47.360;9.650;2023-03-30T06:18:41;7.45;;;2.67;;
46377;SDS011;32083;47.360;9.650;2023-03-30T06:21:07;6.50;;;2.50;;
46377;SDS011;32083;47.360;9.650;2023-03-30T06:23:33;7.82;;;3.00;;
46377;SDS011;32083;47.360;9.650;2023-03-30T06:26:01;6.45;;;2.38;;
46377;SDS011;32083;47.360;9.650;2023-03-30T06:28:28;5.78;;;2.00;;
46377;SDS011;32083;47.360;9.650;2023-03-30T06:30:54;6.05;;;2.33;;
46377;SDS011;32083;47.360;9.650;2023-03-30T06:33:19;9.88;;;2.65;;
46377;SDS011;32083;47.360;9.650;2023-03-30T06:35:46;3.63;;;2.15;;
46377;SDS011;32083;47.360;9.650;2023-03-30T06:38:15;10.27;;;3.05;;
46377;SDS011;32083;47.360;9.650;2023-03-30T06:40:42;6.82;;;3.28;;
46377;SDS011;32083;47.360;9.650;2023-03-30T06:43:14;6.15;;;1.88;;
46377;SDS011;32083;47.360;9.650;2023-03-30T06:45:41;11.43;;;2.20;;
46377;SDS011;32083;47.360;9.650;2023-03-30T06:48:08;5.63;;;1.75;;
46377;SDS011;32083;47.360;9.650;2023-03-30T06:50:34;6.05;;;2.20;;
46377;SDS011;32083;47.360;9.650;2023-03-30T06:53:00;7.00;;;2.13;;
46377;SDS011;32083;47.360;9.650;2023-03-30T06:55:28;2.97;;;1.63;;
46377;SDS011;32083;47.360;9.650;2023-03-30T06:57:54;7.47;;;2.58;;
46377;SDS011;32083;47.360;9.650;2023-03-30T07:00:20;12.27;;;3.22;;
46377;SDS011;32083;47.360;9.650;2023-03-30T07:02:46;7.25;;;2.92;;
46377;SDS011;32083;47.360;9.650;2023-03-30T07:05:12;5.80;;;2.08;;
46377;SDS011;32083;47.360;9.650;2023-03-30T07:07:39;9.25;;;1.65;;
46377;SDS011;32083;47.360;9.650;2023-03-30T07:10:05;4.75;;;1.27;;
46377;SDS011;32083;47.360;9.650;2023-03-30T07:12:37;11.07;;;1.90;;
46377;SDS011;32083;47.360;9.650;2023-03-30T07:15:05;5.10;;;1.60;;
46377;SDS011;32083;47.360;9.650;2023-03-30T07:17:32;7.68;;;1.58;;
46377;SDS011;32083;47.360;9.650;2023-03-30T07:19:59;9.98;;;3.05;;
46377;SDS011;32083;47.360;9.650;2023-03-30T07:22:26;7.10;;;1.80;;
46377;SDS011;32083;47.360;9.650;2023-03-30T07:24:52;8.25;;;2.33;;
46377;SDS011;32083;47.360;9.650;2023-03-30T07:27:18;3.38;;;2.40;;
46377;SDS011;32083;47.360;9.650;2023-03-30T07:29:44;6.60;;;1.88;;
46377;SDS011;32083;47.360;9.650;2023-03-30T07:32:10;6.57;;;2.58;;
46377;SDS011;32083;47.360;9.650;2023-03-30T07:34:36;4.75;;;1.85;;
46377;SDS011;32083;47.360;9.650;2023-03-30T07:37:02;5.15;;;1.40;;
46377;SDS011;32083;47.360;9.650;2023-03-30T07:39:28;4.70;;;1.52;;
46377;SDS011;32083;47.360;9.650;2023-03-30T07:41:54;6.05;;;1.80;;
46377;SDS011;32083;47.360;9.650;2023-03-30T07:44:20;4.95;;;1.77;;
46377;SDS011;32083;47.360;9.650;2023-03-30T07:46:46;6.00;;;2.17;;
46377;SDS011;32083;47.360;9.650;2023-03-30T07:49:12;4.85;;;1.85;;
46377;SDS011;32083;47.360;9.650;2023-03-30T07:51:38;7.07;;;2.35;;
46377;SDS011;32083;47.360;9.650;2023-03-30T07:54:04;3.47;;;1.70;;
46377;SDS011;32083;47.360;9.650;2023-03-30T07:56:30;4.18;;;2.00;;
46377;SDS011;32083;47.360;9.650;2023-03-30T07:58:57;4.47;;;1.58;;
46377;SDS011;32083;47.360;9.650;2023-03-30T08:01:23;5.45;;;1.75;;
46377;SDS011;32083;47.360;9.650;2023-03-30T08:03:49;5.93;;;1.92;;
46377;SDS011;32083;47.360;9.650;2023-03-30T08:06:15;4.90;;;1.75;;
46377;SDS011;32083;47.360;9.650;2023-03-30T08:08:41;6.18;;;1.75;;
46377;SDS011;32083;47.360;9.650;2023-03-30T08:11:07;6.13;;;2.00;;
46377;SDS011;32083;47.360;9.650;2023-03-30T08:13:35;10.90;;;2.55;;
46377;SDS011;32083;47.360;9.650;2023-03-30T08:16:02;9.27;;;2.75;;
46377;SDS011;32083;47.360;9.650;2023-03-30T08:18:28;5.97;;;2.75;;
46377;SDS011;32083;47.360;9.650;2023-03-30T08:20:54;5.95;;;2.42;;
46377;SDS011;32083;47.360;9.650;2023-03-30T08:23:20;4.82;;;2.08;;
46377;SDS011;32083;47.360;9.650;2023-03-30T08:25:46;8.90;;;2.75;;
46377;SDS011;32083;47.360;9.650;2023-03-30T08:28:16;8.20;;;2.08;;
46377;SDS011;32083;47.360;9.650;2023-03-30T08:30:44;10.13;;;2.92;;
46377;SDS011;32083;47.360;9.650;2023-03-30T08:33:10;7.13;;;2.42;;
46377;SDS011;32083;47.360;9.650;2023-03-30T08:35:37;6.72;;;1.83;;
46377;SDS011;32083;47.360;9.650;2023-03-30T08:38:03;9.48;;;3.38;;
46377;SDS011;32083;47.360;9.650;2023-03-30T08:40:29;9.88;;;3.90;;
46377;SDS011;32083;47.360;9.650;2023-03-30T08:42:59;7.85;;;3.40;;
46377;SDS011;32083;47.360;9.650;2023-03-30T08:45:34;8.40;;;3.78;;
46377;SDS011;32083;47.360;9.650;2023-03-30T08:48:02;8.30;;;2.42;;
46377;SDS011;32083;47.360;9.650;2023-03-30T08:50:33;7.35;;;3.10;;
46377;SDS011;32083;47.360;9.650;2023-03-30T08:53:01;7.60;;;2.35;;
46377;SDS011;32083;47.360;9.650;2023-03-30T08:55:30;8.98;;;2.85;;
46377;SDS011;32083;47.360;9.650;2023-03-30T09:00:46;8.75;;;3.05;;
46377;SDS011;32083;47.360;9.650;2023-03-30T09:03:38;11.43;;;2.58;;
46377;SDS011;32083;47.360;9.650;2023-03-30T09:06:11;8.18;;;2.42;;
46377;SDS011;32083;47.360;9.650;2023-03-30T09:08:58;6.18;;;1.90;;
46377;SDS011;32083;47.360;9.650;2023-03-30T09:11:32;16.20;;;3.95;;
46377;SDS011;32083;47.360;9.650;2023-03-30T09:14:02;8.43;;;2.20;;
46377;SDS011;32083;47.360;9.650;2023-03-30T09:16:39;17.77;;;4.47;;
46377;SDS011;32083;47.360;9.650;2023-03-30T09:19:19;5.72;;;1.90;;
46377;SDS011;32083;47.360;9.650;2023-03-30T09:21:52;10.40;;;3.22;;
46377;SDS011;32083;47.360;9.650;2023-03-30T09:24:23;12.90;;;2.65;;
46377;SDS011;32083;47.360;9.650;2023-03-30T09:26:53;9.57;;;2.58;;
46377;SDS011;32083;47.360;9.650;2023-03-30T09:29:29;11.38;;;3.35;;
46377;SDS011;32083;47.360;9.650;2023-03-30T09:32:07;22.13;;;5.30;;
46377;SDS011;32083;47.360;9.650;2023-03-30T09:34:41;10.32;;;3.00;;
46377;SDS011;32083;47.360;9.650;2023-03-30T09:37:17;13.43;;;3.10;;
46377;SDS011;32083;47.360;9.650;2023-03-30T09:39:45;10.90;;;2.50;;
46377;SDS011;32083;47.360;9.650;2023-03-30T09:47:41;19.77;;;4.40;;
46377;SDS011;32083;47.360;9.650;2023-03-30T09:52:36;23.48;;;5.45;;
46377;SDS011;32083;47.360;9.650;2023-03-30T09:58:15;16.52;;;4.25;;
46377;SDS011;32083;47.360;9.650;2023-03-30T10:00:44;13.27;;;3.42;;
46377;SDS011;32083;47.360;9.650;2023-03-30T10:03:19;13.57;;;4.25;;
46377;SDS011;32083;47.360;9.650;2023-03-30T10:06:09;12.90;;;4.45;;
46377;SDS011;32083;47.360;9.650;2023-03-30T10:08:41;10.93;;;3.38;;
46377;SDS011;32083;47.360;9.650;2023-03-30T10:11:14;7.15;;;2.30;;
46377;SDS011;32083;47.360;9.650;2023-03-30T10:13:56;8.35;;;3.65;;
46377;SDS011;32083;47.360;9.650;2023-03-30T10:16:24;14.00;;;3.25;;
46377;SDS011;32083;47.360;9.650;2023-03-30T10:18:52;24.83;;;4.25;;
46377;SDS011;32083;47.360;9.650;2023-03-30T10:21:22;8.02;;;3.47;;
46377;SDS011;32083;47.360;9.650;2023-03-30T10:23:59;16.20;;;6.50;;
46377;SDS011;32083;47.360;9.650;2023-03-30T10:26:46;11.80;;;5.00;;
46377;SDS011;32083;47.360;9.650;2023-03-30T10:31:59;10.18;;;3.85;;
46377;SDS011;32083;47.360;9.650;2023-03-30T10:37:33;9.75;;;3.60;;
46377;SDS011;32083;47.360;9.650;2023-03-30T10:40:08;6.95;;;1.80;;
46377;SDS011;32083;47.360;9.650;2023-03-30T10:42:40;12.90;;;3.50;;
46377;SDS011;32083;47.360;9.650;2023-03-30T10:45:13;10.60;;;3.30;;
46377;SDS011;32083;47.360;9.650;2023-03-30T10:58:39;9.68;;;3.55;;
46377;SDS011;32083;47.360;9.650;2023-03-30T11:07:27;7.05;;;3.45;;
46377;SDS011;32083;47.360;9.650;2023-03-30T11:10:17;7.13;;;3.30;;
46377;SDS011;32083;47.360;9.650;2023-03-30T11:12:57;9.68;;;3.42;;
46377;SDS011;32083;47.360;9.650;2023-03-30T11:15:33;5.75;;;3.42;;
46377;SDS011;32083;47.360;9.650;2023-03-30T11:23:32;12.43;;;3.72;;
46377;SDS011;32083;47.360;9.650;2023-03-30T11:26:10;12.00;;;3.97;;
46377;SDS011;32083;47.360;9.650;2023-03-30T11:31:26;8.82;;;4.47;;
46377;SDS011;32083;47.360;9.650;2023-03-30T11:39:21;10.73;;;4.28;;
46377;SDS011;32083;47.360;9.650;2023-03-30T11:41:56;7.88;;;3.60;;
46377;SDS011;32083;47.360;9.650;2023-03-30T11:44:26;8.30;;;3.13;;
46377;SDS011;32083;47.360;9.650;2023-03-30T11:46:56;5.22;;;1.98;;
46377;SDS011;32083;47.360;9.650;2023-03-30T11:52:33;5.78;;;2.95;;
46377;SDS011;32083;47.360;9.650;2023-03-30T11:55:20;4.65;;;1.63;;
46377;SDS011;32083;47.360;9.650;2023-03-30T12:03:41;12.48;;;3.65;;
46377;SDS011;32083;47.360;9.650;2023-03-30T12:06:17;9.07;;;3.05;;
46377;SDS011;32083;47.360;9.650;2023-03-30T12:13:58;8.10;;;3.97;;
46377;SDS011;32083;47.360;9.650;2023-03-30T12:16:41;12.30;;;7.18;;
46377;SDS011;32083;47.360;9.650;2023-03-30T12:19:14;7.75;;;5.38;;
46377;SDS011;32083;47.360;9.650;2023-03-30T12:27:51;8.32;;;3.80;;
46377;SDS011;32083;47.360;9.650;2023-03-30T12:30:56;10.30;;;3.33;;
46377;SDS011;32083;47.360;9.650;2023-03-30T12:33:33;8.02;;;2.58;;
46377;SDS011;32083;47.360;9.650;2023-03-30T12:36:45;7.47;;;3.05;;
46377;SDS011;32083;47.360;9.650;2023-03-30T12:39:03;11.27;;;3.05;;
46377;SDS011;32083;47.360;9.650;2023-03-30T12:41:54;8.95;;;2.97;;
46377;SDS011;32083;47.360;9.650;2023-03-30T12:52:34;4.75;;;1.20;;
46377;SDS011;32083;47.360;9.650;2023-03-30T13:05:53;5.13;;;1.48;;
46377;SDS011;32083;47.360;9.650;2023-03-30T13:10:51;5.47;;;1.80;;
46377;SDS011;32083;47.360;9.650;2023-03-30T13:22:03;3.67;;;1.60;;
46377;SDS011;32083;47.360;9.650;2023-03-30T13:24:45;3.78;;;1.60;;
46377;SDS011;32083;47.360;9.650;2023-03-30T13:27:21;4.50;;;1.58;;
46377;SDS011;32083;47.360;9.650;2023-03-30T13:30:32;3.88;;;1.40;;
46377;SDS011;32083;47.360;9.650;2023-03-30T13:51:56;4.85;;;2.30;;
46377;SDS011;32083;47.360;9.650;2023-03-30T13:54:29;7.97;;;2.40;;
46377;SDS011;32083;47.360;9.650;2023-03-30T13:57:01;4.65;;;2.70;;
46377;SDS011;32083;47.360;9.650;2023-03-30T13:59:32;6.18;;;2.03;;
46377;SDS011;32083;47.360;9.650;2023-03-30T14:02:02;4.93;;;2.38;;
46377;SDS011;32083;47.360;9.650;2023-03-30T14:04:30;5.85;;;2.60;;
46377;SDS011;32083;47.360;9.650;2023-03-30T14:07:02;4.72;;;3.17;;
46377;SDS011;32083;47.360;9.650;2023-03-30T14:09:40;9.93;;;3.95;;
46377;SDS011;32083;47.360;9.650;2023-03-30T14:12:06;6.38;;;3.58;;
46377;SDS011;32083;47.360;9.650;2023-03-30T14:14:34;7.60;;;4.35;;
46377;SDS011;32083;47.360;9.650;2023-03-30T14:17:28;7.72;;;4.32;;
46377;SDS011;32083;47.360;9.650;2023-03-30T14:22:48;7.15;;;2.85;;
46377;SDS011;32083;47.360;9.650;2023-03-30T14:25:21;5.68;;;2.58;;
46377;SDS011;32083;47.360;9.650;2023-03-30T14:28:10;6.28;;;3.80;;
46377;SDS011;32083;47.360;9.650;2023-03-30T14:30:37;8.35;;;3.78;;
46377;SDS011;32083;47.360;9.650;2023-03-30T14:33:04;8.27;;;4.43;;
46377;SDS011;32083;47.360;9.650;2023-03-30T14:35:35;8.38;;;3.60;;
46377;SDS011;32083;47.360;9.650;2023-03-30T14:38:05;5.07;;;2.38;;
46377;SDS011;32083;47.360;9.650;2023-03-30T14:40:36;2.92;;;2.22;;
46377;SDS011;32083;47.360;9.650;2023-03-30T14:43:05;5.25;;;2.50;;
46377;SDS011;32083;47.360;9.650;2023-03-30T14:45:35;4.35;;;2.80;;
46377;SDS011;32083;47.360;9.650;2023-03-30T14:48:01;4.30;;;2.40;;
46377;SDS011;32083;47.360;9.650;2023-03-30T14:50:28;3.95;;;2.55;;
46377;SDS011;32083;47.360;9.650;2023-03-30T14:52:54;5.03;;;2.75;;
46377;SDS011;32083;47.360;9.650;2023-03-30T14:55:22;5.72;;;2.25;;
46377;SDS011;32083;47.360;9.650;2023-03-30T14:57:50;3.15;;;2.10;;
46377;SDS011;32083;47.360;9.650;2023-03-30T15:00:17;3.45;;;2.50;;
46377;SDS011;32083;47.360;9.650;2023-03-30T15:03:04;3.75;;;2.15;;
46377;SDS011;32083;47.360;9.650;2023-03-30T15:05:37;3.45;;;2.15;;
46377;SDS011;32083;47.360;9.650;2023-03-30T15:08:20;2.45;;;1.88;;
46377;SDS011;32083;47.360;9.650;2023-03-30T15:10:57;2.20;;;1.90;;
46377;SDS011;32083;47.360;9.650;2023-03-30T15:13:42;3.97;;;2.40;;
46377;SDS011;32083;47.360;9.650;2023-03-30T15:16:22;7.25;;;2.90;;
46377;SDS011;32083;47.360;9.650;2023-03-30T15:18:59;3.63;;;2.90;;
46377;SDS011;32083;47.360;9.650;2023-03-30T15:21:33;3.45;;;2.20;;
46377;SDS011;32083;47.360;9.650;2023-03-30T15:24:00;4.13;;;2.15;;
46377;SDS011;32083;47.360;9.650;2023-03-30T15:26:33;3.17;;;2.88;;
46377;SDS011;32083;47.360;9.650;2023-03-30T15:29:01;5.38;;;2.42;;
46377;SDS011;32083;47.360;9.650;2023-03-30T15:31:28;3.78;;;3.17;;
46377;SDS011;32083;47.360;9.650;2023-03-30T15:33:57;5.90;;;3.10;;
46377;SDS011;32083;47.360;9.650;2023-03-30T15:38:58;4.40;;;3.20;;
46377;SDS011;32083;47.360;9.650;2023-03-30T15:44:16;5.32;;;3.28;;
46377;SDS011;32083;47.360;9.650;2023-03-30T15:46:44;5.32;;;4.20;;
46377;SDS011;32083;47.360;9.650;2023-03-30T15:49:12;3.85;;;3.45;;
46377;SDS011;32083;47.360;9.650;2023-03-30T15:51:47;4.68;;;3.08;;
46377;SDS011;32083;47.360;9.650;2023-03-30T15:57:18;5.03;;;3.23;;
46377;SDS011;32083;47.360;9.650;2023-03-30T16:05:05;4.80;;;4.20;;
46377;SDS011;32083;47.360;9.650;2023-03-30T16:07:39;5.53;;;3.75;;
46377;SDS011;32083;47.360;9.650;2023-03-30T16:10:11;4.15;;;3.53;;
46377;SDS011;32083;47.360;9.650;2023-03-30T16:12:43;4.75;;;3.28;;
46377;SDS011;32083;47.360;9.650;2023-03-30T16:15:14;6.85;;;4.93;;
46377;SDS011;32083;47.360;9.650;2023-03-30T16:17:42;5.95;;;3.25;;
46377;SDS011;32083;47.360;9.650;2023-03-30T16:20:28;4.75;;;4.00;;
46377;SDS011;32083;47.360;9.650;2023-03-30T16:22:55;5.20;;;3.97;;
46377;SDS011;32083;47.360;9.650;2023-03-30T16:25:22;6.45;;;4.05;;
46377;SDS011;32083;47.360;9.650;2023-03-30T16:27:50;5.03;;;3.90;;
46377;SDS011;32083;47.360;9.650;2023-03-30T16:32:59;6.18;;;4.68;;
46377;SDS011;32083;47.360;9.650;2023-03-30T16:35:26;4.70;;;4.13;;
46377;SDS011;32083;47.360;9.650;2023-03-30T16:37:52;4.97;;;4.45;;
46377;SDS011;32083;47.360;9.650;2023-03-30T16:40:26;6.43;;;4.38;;
46377;SDS011;32083;47.360;9.650;2023-03-30T16:42:58;7.57;;;4.72;;
46377;SDS011;32083;47.360;9.650;2023-03-30T16:45:24;7.43;;;5.45;;
46377;SDS011;32083;47.360;9.650;2023-03-30T16:47:51;6.90;;;4.72;;
46377;SDS011;32083;47.360;9.650;2023-03-30T16:53:04;5.40;;;4.70;;
46377;SDS011;32083;47.360;9.650;2023-03-30T16:55:30;5.50;;;4.60;;
46377;SDS011;32083;47.360;9.650;2023-03-30T16:57:56;5.35;;;4.85;;
46377;SDS011;32083;47.360;9.650;2023-03-30T17:00:27;5.90;;;4.38;;
46377;SDS011;32083;47.360;9.650;2023-03-30T17:02:54;6.90;;;4.40;;
46377;SDS011;32083;47.360;9.650;2023-03-30T17:05:20;9.13;;;5.93;;
46377;SDS011;32083;47.360;9.650;2023-03-30T17:07:47;6.78;;;5.47;;
46377;SDS011;32083;47.360;9.650;2023-03-30T17:10:24;5.72;;;4.50;;
46377;SDS011;32083;47.360;9.650;2023-03-30T17:12:52;7.97;;;5.55;;
46377;SDS011;32083;47.360;9.650;2023-03-30T17:15:19;8.02;;;5.07;;
46377;SDS011;32083;47.360;9.650;2023-03-30T17:17:46;9.02;;;5.10;;
46377;SDS011;32083;47.360;9.650;2023-03-30T17:20:17;8.40;;;5.22;;
46377;SDS011;32083;47.360;9.650;2023-03-30T17:22:53;7.82;;;5.47;;
46377;SDS011;32083;47.360;9.650;2023-03-30T17:25:19;16.20;;;6.30;;
46377;SDS011;32083;47.360;9.650;2023-03-30T17:27:48;6.70;;;4.82;;
46377;SDS011;32083;47.360;9.650;2023-03-30T17:33:01;7.32;;;6.07;;
46377;SDS011;32083;47.360;9.650;2023-03-30T17:35:27;9.65;;;6.10;;
46377;SDS011;32083;47.360;9.650;2023-03-30T17:37:53;6.15;;;5.03;;
46377;SDS011;32083;47.360;9.650;2023-03-30T17:40:20;9.00;;;6.05;;
46377;SDS011;32083;47.360;9.650;2023-03-30T17:42:47;6.55;;;4.88;;
46377;SDS011;32083;47.360;9.650;2023-03-30T17:45:14;7.43;;;5.35;;
46377;SDS011;32083;47.360;9.650;2023-03-30T17:47:42;5.43;;;4.00;;
46377;SDS011;32083;47.360;9.650;2023-03-30T17:50:19;7.28;;;5.03;;
46377;SDS011;32083;47.360;9.650;2023-03-30T17:52:48;8.88;;;5.97;;
46377;SDS011;32083;47.360;9.650;2023-03-30T17:55:15;10.05;;;6.00;;
46377;SDS011;32083;47.360;9.650;2023-03-30T17:57:44;7.47;;;6.22;;
46377;SDS011;32083;47.360;9.650;2023-03-30T18:00:15;10.30;;;5.40;;
46377;SDS011;32083;47.360;9.650;2023-03-30T18:02:41;10.52;;;6.13;;
46377;SDS011;32083;47.360;9.650;2023-03-30T18:05:07;6.95;;;5.00;;
46377;SDS011;32083;47.360;9.650;2023-03-30T18:07:34;10.25;;;5.80;;
46377;SDS011;32083;47.360;9.650;2023-03-30T18:10:00;7.65;;;5.00;;
46377;SDS011;32083;47.360;9.650;2023-03-30T18:12:36;6.80;;;4.88;;
46377;SDS011;32083;47.360;9.650;2023-03-30T18:15:02;7.45;;;5.10;;
46377;SDS011;32083;47.360;9.650;2023-03-30T18:17:28;5.68;;;5.03;;
46377;SDS011;32083;47.360;9.650;2023-03-30T18:19:54;5.13;;;4.50;;
46377;SDS011;32083;47.360;9.650;2023-03-30T18:22:20;8.43;;;6.25;;
46377;SDS011;32083;47.360;9.650;2023-03-30T18:24:46;6.88;;;5.70;;
46377;SDS011;32083;47.360;9.650;2023-03-30T18:27:13;8.63;;;6.10;;
46377;SDS011;32083;47.360;9.650;2023-03-30T18:29:38;7.85;;;5.70;;
46377;SDS011;32083;47.360;9.650;2023-03-30T18:32:04;7.18;;;5.68;;
46377;SDS011;32083;47.360;9.650;2023-03-30T18:34:30;8.27;;;5.75;;
46377;SDS011;32083;47.360;9.650;2023-03-30T18:36:56;9.85;;;6.40;;
46377;SDS011;32083;47.360;9.650;2023-03-30T18:39:22;9.77;;;6.43;;
46377;SDS011;32083;47.360;9.650;2023-03-30T18:41:48;8.93;;;7.35;;
46377;SDS011;32083;47.360;9.650;2023-03-30T18:44:14;11.13;;;7.50;;
46377;SDS011;32083;47.360;9.650;2023-03-30T18:46:48;10.70;;;7.25;;
46377;SDS011;32083;47.360;9.650;2023-03-30T18:49:16;8.55;;;6.43;;
46377;SDS011;32083;47.360;9.650;2023-03-30T18:51:45;7.57;;;5.45;;
46377;SDS011;32083;47.360;9.650;2023-03-30T18:54:11;7.25;;;6.13;;
46377;SDS011;32083;47.360;9.650;2023-03-30T18:56:37;8.38;;;6.18;;
46377;SDS011;32083;47.360;9.650;2023-03-30T18:59:02;10.15;;;6.13;;
46377;SDS011;32083;47.360;9.650;2023-03-30T19:01:33;8.57;;;6.40;;
46377;SDS011;32083;47.360;9.650;2023-03-30T19:04:00;12.27;;;8.13;;
46377;SDS011;32083;47.360;9.650;2023-03-30T19:06:26;8.43;;;6.03;;
46377;SDS011;32083;47.360;9.650;2023-03-30T19:08:53;11.57;;;6.18;;
46377;SDS011;32083;47.360;9.650;2023-03-30T19:11:20;7.35;;;5.35;;
46377;SDS011;32083;47.360;9.650;2023-03-30T19:13:48;6.35;;;5.40;;
46377;SDS011;32083;47.360;9.650;2023-03-30T19:16:15;7.63;;;6.03;;
46377;SDS011;32083;47.360;9.650;2023-03-30T19:18:43;6.03;;;5.07;;
46377;SDS011;32083;47.360;9.650;2023-03-30T19:21:13;6.75;;;4.70;;
46377;SDS011;32083;47.360;9.650;2023-03-30T19:23:41;7.70;;;4.38;;
46377;SDS011;32083;47.360;9.650;2023-03-30T19:26:07;6.25;;;4.25;;
46377;SDS011;32083;47.360;9.650;2023-03-30T19:28:33;8.05;;;4.38;;
46377;SDS011;32083;47.360;9.650;2023-03-30T19:31:05;6.05;;;3.75;;
46377;SDS011;32083;47.360;9.650;2023-03-30T19:33:39;5.70;;;3.63;;
46377;SDS011;32083;47.360;9.650;2023-03-30T19:36:05;6.25;;;3.85;;
46377;SDS011;32083;47.360;9.650;2023-03-30T19:38:32;8.15;;;3.85;;
46377;SDS011;32083;47.360;9.650;2023-03-30T19:40:59;6.95;;;4.20;;
46377;SDS011;32083;47.360;9.650;2023-03-30T19:43:26;5.70;;;4.65;;
46377;SDS011;32083;47.360;9.650;2023-03-30T19:45:52;7.88;;;4.93;;
46377;SDS011;32083;47.360;9.650;2023-03-30T19:48:18;4.60;;;3.95;;
46377;SDS011;32083;47.360;9.650;2023-03-30T19:50:44;6.18;;;4.90;;
46377;SDS011;32083;47.360;9.650;2023-03-30T19:53:11;7.63;;;5.05;;
46377;SDS011;32083;47.360;9.650;2023-03-30T19:55:37;6.80;;;5.07;;
46377;SDS011;32083;47.360;9.650;2023-03-30T19:58:03;5.53;;;5.03;;
46377;SDS011;32083;47.360;9.650;2023-03-30T20:00:29;6.40;;;5.53;;
46377;SDS011;32083;47.360;9.650;2023-03-30T20:02:56;7.47;;;5.78;;
46377;SDS011;32083;47.360;9.650;2023-03-30T20:05:23;9.27;;;5.57;;
46377;SDS011;32083;47.360;9.650;2023-03-30T20:07:49;7.63;;;4.38;;
46377;SDS011;32083;47.360;9.650;2023-03-30T20:10:16;5.30;;;4.78;;
46377;SDS011;32083;47.360;9.650;2023-03-30T20:12:47;6.88;;;4.75;;
46377;SDS011;32083;47.360;9.650;2023-03-30T20:15:15;6.43;;;4.63;;
46377;SDS011;32083;47.360;9.650;2023-03-30T20:17:42;4.97;;;4.40;;
46377;SDS011;32083;47.360;9.650;2023-03-30T20:20:09;6.00;;;4.53;;
46377;SDS011;32083;47.360;9.650;2023-03-30T20:22:37;5.60;;;4.68;;
46377;SDS011;32083;47.360;9.650;2023-03-30T20:25:08;5.70;;;3.65;;
46377;SDS011;32083;47.360;9.650;2023-03-30T20:27:36;7.57;;;4.50;;
46377;SDS011;32083;47.360;9.650;2023-03-30T20:30:03;5.57;;;4.25;;
46377;SDS011;32083;47.360;9.650;2023-03-30T20:32:30;5.13;;;4.40;;
46377;SDS011;32083;47.360;9.650;2023-03-30T20:34:59;6.40;;;4.60;;
46377;SDS011;32083;47.360;9.650;2023-03-30T20:37:25;6.88;;;4.47;;
46377;SDS011;32083;47.360;9.650;2023-03-30T20:39:51;4.68;;;4.28;;
46377;SDS011;32083;47.360;9.650;2023-03-30T20:42:17;5.88;;;4.93;;
46377;SDS011;32083;47.360;9.650;2023-03-30T20:44:50;6.53;;;4.40;;
46377;SDS011;32083;47.360;9.650;2023-03-30T20:47:16;6.20;;;4.88;;
46377;SDS011;32083;47.360;9.650;2023-03-30T20:49:43;5.25;;;4.65;;
46377;SDS011;32083;47.360;9.650;2023-03-30T20:52:10;5.25;;;4.75;;
46377;SDS011;32083;47.360;9.650;2023-03-30T20:54:36;5.40;;;4.75;;
46377;SDS011;32083;47.360;9.650;2023-03-30T20:57:02;7.55;;;4.68;;
46377;SDS011;32083;47.360;9.650;2023-03-30T20:59:29;5.88;;;4.22;;
46377;SDS011;32083;47.360;9.650;2023-03-30T21:01:55;7.50;;;4.50;;
46377;SDS011;32083;47.360;9.650;2023-03-30T21:04:23;6.13;;;4.88;;
46377;SDS011;32083;47.360;9.650;2023-03-30T21:06:51;9.68;;;4.65;;
46377;SDS011;32083;47.360;9.650;2023-03-30T21:09:17;5.18;;;4.68;;
46377;SDS011;32083;47.360;9.650;2023-03-30T21:11:44;6.90;;;5.38;;
46377;SDS011;32083;47.360;9.650;2023-03-30T21:14:11;7.85;;;5.00;;
46377;SDS011;32083;47.360;9.650;2023-03-30T21:16:38;7.60;;;5.28;;
46377;SDS011;32083;47.360;9.650;2023-03-30T21:19:06;7.63;;;5.80;;
46377;SDS011;32083;47.360;9.650;2023-03-30T21:21:33;6.60;;;5.30;;
46377;SDS011;32083;47.360;9.650;2023-03-30T21:24:01;6.80;;;5.50;;